sensor_id;sensor_type;location;lat;lon;timestamp;P1;durP1;ratioP1;P2;durP2;ratioP2
72369;SDS011;60343;-32.030;115.880;2023-06-10T00:02:32;7.53;;;2.03;;
72369;SDS011;60343;-32.030;115.880;2023-06-10T00:05:09;5.97;;;2.20;;
72369;SDS011;60343;-32.030;115.880;2023-06-10T00:10:22;5.55;;;2.20;;
72369;SDS011;60343;-32.030;115.880;2023-06-10T00:12:58;4.90;;;2.22;;
72369;SDS011;60343;-32.030;115.880;2023-06-10T00:15:41;4.30;;;1.80;;
72369;SDS011;60343;-32.030;115.880;2023-06-10T00:18:17;5.18;;;1.90;;
72369;SDS011;60343;-32.030;115.880;2023-06-10T00:20:53;4.65;;;1.85;;
72369;SDS011;60343;-32.030;115.880;2023-06-10T00:23:31;6.75;;;2.20;;
72369;SDS011;60343;-32.030;115.880;2023-06-10T00:26:08;5.95;;;1.80;;
72369;SDS011;60343;-32.030;115.880;2023-06-10T00:28:45;4.20;;;1.80;;
72369;SDS011;60343;-32.030;115.880;2023-06-10T00:31:27;3.78;;;1.45;;
72369;SDS011;60343;-32.030;115.880;2023-06-10T00:34:03;3.88;;;1.50;;
72369;SDS011;60343;-32.030;115.880;2023-06-10T00:36:40;5.97;;;1.60;;
72369;SDS011;60343;-32.030;115.880;2023-06-10T00:39:17;4.68;;;1.45;;
72369;SDS011;60343;-32.030;115.880;2023-06-10T00:41:53;4.32;;;1.38;;
72369;SDS011;60343;-32.030;115.880;2023-06-10T00:44:33;3.42;;;1.40;;
72369;SDS011;60343;-32.030;115.880;2023-06-10T00:47:15;3.10;;;1.25;;
72369;SDS011;60343;-32.030;115.880;2023-06-10T00:49:52;3.50;;;0.90;;
72369;SDS011;60343;-32.030;115.880;2023-06-10T00:52:29;3.63;;;1.00;;
72369;SDS011;60343;-32.030;115.880;2023-06-10T00:55:06;3.78;;;1.20;;
72369;SDS011;60343;-32.030;115.880;2023-06-10T00:57:43;5.80;;;1.10;;
72369;SDS011;60343;-32.030;115.880;2023-06-10T01:00:21;3.35;;;1.00;;
72369;SDS011;60343;-32.030;115.880;2023-06-10T01:03:03;3.60;;;1.08;;
72369;SDS011;60343;-32.030;115.880;2023-06-10T01:05:41;5.32;;;1.20;;
72369;SDS011;60343;-32.030;115.880;2023-06-10T01:08:24;5.50;;;1.05;;
72369;SDS011;60343;-32.030;115.880;2023-06-10T01:11:12;2.28;;;0.80;;
72369;SDS011;60343;-32.030;115.880;2023-06-10T01:13:53;2.25;;;1.00;;
72369;SDS011;60343;-32.030;115.880;2023-06-10T01:16:30;3.72;;;1.10;;
72369;SDS011;60343;-32.030;115.880;2023-06-10T01:19:14;2.97;;;0.90;;
72369;SDS011;60343;-32.030;115.880;2023-06-10T01:21:56;4.82;;;1.20;;
72369;SDS011;60343;-32.030;115.880;2023-06-10T01:24:33;2.60;;;0.65;;
72369;SDS011;60343;-32.030;115.880;2023-06-10T01:27:12;2.50;;;0.70;;
72369;SDS011;60343;-32.030;115.880;2023-06-10T01:29:54;3.13;;;0.90;;
72369;SDS011;60343;-32.030;115.880;2023-06-10T01:32:43;3.63;;;1.00;;
72369;SDS011;60343;-32.030;115.880;2023-06-10T01:35:22;3.90;;;0.98;;
72369;SDS011;60343;-32.030;115.880;2023-06-10T01:38:07;3.80;;;0.98;;
72369;SDS011;60343;-32.030;115.880;2023-06-10T01:40:44;2.65;;;0.70;;
72369;SDS011;60343;-32.030;115.880;2023-06-10T01:43:22;2.83;;;0.80;;
72369;SDS011;60343;-32.030;115.880;2023-06-10T01:45:59;4.97;;;1.08;;
72369;SDS011;60343;-32.030;115.880;2023-06-10T01:48:36;3.15;;;0.82;;
72369;SDS011;60343;-32.030;115.880;2023-06-10T01:51:15;3.47;;;0.60;;
72369;SDS011;60343;-32.030;115.880;2023-06-10T01:53:57;4.60;;;0.93;;
72369;SDS011;60343;-32.030;115.880;2023-06-10T01:56:34;2.90;;;0.77;;
72369;SDS011;60343;-32.030;115.880;2023-06-10T01:59:10;2.45;;;0.70;;
72369;SDS011;60343;-32.030;115.880;2023-06-10T02:01:46;3.88;;;0.90;;
72369;SDS011;60343;-32.030;115.880;2023-06-10T02:04:23;2.45;;;0.80;;
72369;SDS011;60343;-32.030;115.880;2023-06-10T02:06:59;2.03;;;0.60;;
72369;SDS011;60343;-32.030;115.880;2023-06-10T02:09:42;2.40;;;0.40;;
72369;SDS011;60343;-32.030;115.880;2023-06-10T02:12:18;3.55;;;0.98;;
72369;SDS011;60343;-32.030;115.880;2023-06-10T02:14:54;0.95;;;0.35;;
72369;SDS011;60343;-32.030;115.880;2023-06-10T02:17:31;2.80;;;0.40;;
72369;SDS011;60343;-32.030;115.880;2023-06-10T02:20:08;4.93;;;0.70;;
72369;SDS011;60343;-32.030;115.880;2023-06-10T02:22:44;2.67;;;0.60;;
72369;SDS011;60343;-32.030;115.880;2023-06-10T02:25:27;2.33;;;0.65;;
72369;SDS011;60343;-32.030;115.880;2023-06-10T02:28:03;2.85;;;0.40;;
72369;SDS011;60343;-32.030;115.880;2023-06-10T02:30:40;2.20;;;0.43;;
72369;SDS011;60343;-32.030;115.880;2023-06-10T02:33:16;1.60;;;0.50;;
72369;SDS011;60343;-32.030;115.880;2023-06-10T02:35:53;2.92;;;0.40;;
72369;SDS011;60343;-32.030;115.880;2023-06-10T02:38:29;0.52;;;0.30;;
72369;SDS011;60343;-32.030;115.880;2023-06-10T02:41:11;2.42;;;0.32;;
72369;SDS011;60343;-32.030;115.880;2023-06-10T02:43:48;1.90;;;0.40;;
72369;SDS011;60343;-32.030;115.880;2023-06-10T02:46:24;2.58;;;0.40;;
72369;SDS011;60343;-32.030;115.880;2023-06-10T02:49:01;4.10;;;0.50;;
72369;SDS011;60343;-32.030;115.880;2023-06-10T02:51:38;3.15;;;0.40;;
72369;SDS011;60343;-32.030;115.880;2023-06-10T02:54:14;1.90;;;0.40;;
72369;SDS011;60343;-32.030;115.880;2023-06-10T02:56:57;1.48;;;0.40;;
72369;SDS011;60343;-32.030;115.880;2023-06-10T02:59:33;1.25;;;0.45;;
72369;SDS011;60343;-32.030;115.880;2023-06-10T03:02:09;2.17;;;0.40;;
72369;SDS011;60343;-32.030;115.880;2023-06-10T03:04:46;3.92;;;0.50;;
72369;SDS011;60343;-32.030;115.880;2023-06-10T03:07:22;1.80;;;0.50;;
72369;SDS011;60343;-32.030;115.880;2023-06-10T03:09:58;2.33;;;0.30;;
72369;SDS011;60343;-32.030;115.880;2023-06-10T03:12:41;3.30;;;0.30;;
72369;SDS011;60343;-32.030;115.880;2023-06-10T03:15:17;0.85;;;0.30;;
72369;SDS011;60343;-32.030;115.880;2023-06-10T03:17:55;1.85;;;0.32;;
72369;SDS011;60343;-32.030;115.880;2023-06-10T03:20:31;2.42;;;0.30;;
72369;SDS011;60343;-32.030;115.880;2023-06-10T03:23:08;1.58;;;0.40;;
72369;SDS011;60343;-32.030;115.880;2023-06-10T03:25:45;2.83;;;0.30;;
72369;SDS011;60343;-32.030;115.880;2023-06-10T03:28:27;3.67;;;0.30;;
72369;SDS011;60343;-32.030;115.880;2023-06-10T03:31:03;1.67;;;0.40;;
72369;SDS011;60343;-32.030;115.880;2023-06-10T03:33:40;2.75;;;0.57;;
72369;SDS011;60343;-32.030;115.880;2023-06-10T03:36:19;1.73;;;0.50;;
72369;SDS011;60343;-32.030;115.880;2023-06-10T03:39:13;1.48;;;0.30;;
72369;SDS011;60343;-32.030;115.880;2023-06-10T03:41:50;0.60;;;0.22;;
72369;SDS011;60343;-32.030;115.880;2023-06-10T03:44:35;1.08;;;0.30;;
72369;SDS011;60343;-32.030;115.880;2023-06-10T03:47:12;1.10;;;0.20;;
72369;SDS011;60343;-32.030;115.880;2023-06-10T03:49:51;1.88;;;0.25;;
72369;SDS011;60343;-32.030;115.880;2023-06-10T03:52:28;0.40;;;0.10;;
72369;SDS011;60343;-32.030;115.880;2023-06-10T03:55:04;1.55;;;0.30;;
72369;SDS011;60343;-32.030;115.880;2023-06-10T03:57:43;0.95;;;0.20;;
72369;SDS011;60343;-32.030;115.880;2023-06-10T04:00:25;1.40;;;0.20;;
72369;SDS011;60343;-32.030;115.880;2023-06-10T04:03:07;0.73;;;0.10;;
72369;SDS011;60343;-32.030;115.880;2023-06-10T04:05:44;0.55;;;0.10;;
72369;SDS011;60343;-32.030;115.880;2023-06-10T04:08:20;0.88;;;0.10;;
72369;SDS011;60343;-32.030;115.880;2023-06-10T04:10:57;1.90;;;0.20;;
72369;SDS011;60343;-32.030;115.880;2023-06-10T04:13:34;0.82;;;0.13;;
72369;SDS011;60343;-32.030;115.880;2023-06-10T04:16:16;2.60;;;0.20;;
72369;SDS011;60343;-32.030;115.880;2023-06-10T04:18:52;0.55;;;0.15;;
72369;SDS011;60343;-32.030;115.880;2023-06-10T04:21:29;2.85;;;0.25;;
72369;SDS011;60343;-32.030;115.880;2023-06-10T04:24:06;2.50;;;0.30;;
72369;SDS011;60343;-32.030;115.880;2023-06-10T04:26:42;2.65;;;0.30;;
72369;SDS011;60343;-32.030;115.880;2023-06-10T04:29:18;1.15;;;0.30;;
72369;SDS011;60343;-32.030;115.880;2023-06-10T04:32:01;0.70;;;0.20;;
72369;SDS011;60343;-32.030;115.880;2023-06-10T04:34:37;2.15;;;0.30;;
72369;SDS011;60343;-32.030;115.880;2023-06-10T04:37:13;0.85;;;0.20;;
72369;SDS011;60343;-32.030;115.880;2023-06-10T04:39:50;1.80;;;0.28;;
72369;SDS011;60343;-32.030;115.880;2023-06-10T04:42:26;0.60;;;0.20;;
72369;SDS011;60343;-32.030;115.880;2023-06-10T04:45:02;1.63;;;0.20;;
72369;SDS011;60343;-32.030;115.880;2023-06-10T04:47:45;0.82;;;0.17;;
72369;SDS011;60343;-32.030;115.880;2023-06-10T04:50:22;1.33;;;0.20;;
72369;SDS011;60343;-32.030;115.880;2023-06-10T04:52:59;0.95;;;0.13;;
72369;SDS011;60343;-32.030;115.880;2023-06-10T04:55:35;1.88;;;0.30;;
72369;SDS011;60343;-32.030;115.880;2023-06-10T04:58:12;0.20;;;0.10;;
72369;SDS011;60343;-32.030;115.880;2023-06-10T05:00:48;1.30;;;0.10;;
72369;SDS011;60343;-32.030;115.880;2023-06-10T05:03:31;2.83;;;0.20;;
72369;SDS011;60343;-32.030;115.880;2023-06-10T05:06:07;1.55;;;0.20;;
72369;SDS011;60343;-32.030;115.880;2023-06-10T05:08:43;0.55;;;0.13;;
72369;SDS011;60343;-32.030;115.880;2023-06-10T05:11:19;1.00;;;0.10;;
72369;SDS011;60343;-32.030;115.880;2023-06-10T05:13:56;0.15;;;0.00;;
72369;SDS011;60343;-32.030;115.880;2023-06-10T05:16:32;1.52;;;0.15;;
72369;SDS011;60343;-32.030;115.880;2023-06-10T05:19:15;0.52;;;0.13;;
72369;SDS011;60343;-32.030;115.880;2023-06-10T05:21:52;0.38;;;0.10;;
72369;SDS011;60343;-32.030;115.880;2023-06-10T05:24:28;3.03;;;0.20;;
72369;SDS011;60343;-32.030;115.880;2023-06-10T05:27:05;2.15;;;0.30;;
72369;SDS011;60343;-32.030;115.880;2023-06-10T05:29:41;1.63;;;0.32;;
72369;SDS011;60343;-32.030;115.880;2023-06-10T05:32:18;0.82;;;0.20;;
72369;SDS011;60343;-32.030;115.880;2023-06-10T05:35:00;2.22;;;0.25;;
72369;SDS011;60343;-32.030;115.880;2023-06-10T05:37:37;17.02;;;1.75;;
72369;SDS011;60343;-32.030;115.880;2023-06-10T05:40:13;2.28;;;0.20;;
72369;SDS011;60343;-32.030;115.880;2023-06-10T05:42:49;1.60;;;0.40;;
72369;SDS011;60343;-32.030;115.880;2023-06-10T05:45:26;4.90;;;0.50;;
72369;SDS011;60343;-32.030;115.880;2023-06-10T05:48:03;1.80;;;0.55;;
72369;SDS011;60343;-32.030;115.880;2023-06-10T05:50:45;3.33;;;0.38;;
72369;SDS011;60343;-32.030;115.880;2023-06-10T05:53:22;3.53;;;0.50;;
72369;SDS011;60343;-32.030;115.880;2023-06-10T05:55:58;1.98;;;0.40;;
72369;SDS011;60343;-32.030;115.880;2023-06-10T05:58:34;3.80;;;0.82;;
72369;SDS011;60343;-32.030;115.880;2023-06-10T06:01:11;1.77;;;0.30;;
72369;SDS011;60343;-32.030;115.880;2023-06-10T06:03:47;2.53;;;0.30;;
72369;SDS011;60343;-32.030;115.880;2023-06-10T06:06:30;2.17;;;0.32;;
72369;SDS011;60343;-32.030;115.880;2023-06-10T06:09:06;3.38;;;0.35;;
72369;SDS011;60343;-32.030;115.880;2023-06-10T06:11:42;1.88;;;0.20;;
72369;SDS011;60343;-32.030;115.880;2023-06-10T06:14:20;2.35;;;0.30;;
72369;SDS011;60343;-32.030;115.880;2023-06-10T06:16:56;1.70;;;0.30;;
72369;SDS011;60343;-32.030;115.880;2023-06-10T06:19:32;1.90;;;0.20;;
72369;SDS011;60343;-32.030;115.880;2023-06-10T06:22:15;1.90;;;0.20;;
72369;SDS011;60343;-32.030;115.880;2023-06-10T06:24:52;2.75;;;0.30;;
72369;SDS011;60343;-32.030;115.880;2023-06-10T06:27:29;3.08;;;0.28;;
72369;SDS011;60343;-32.030;115.880;2023-06-10T06:30:05;3.03;;;0.22;;
72369;SDS011;60343;-32.030;115.880;2023-06-10T06:32:42;2.00;;;0.22;;
72369;SDS011;60343;-32.030;115.880;2023-06-10T06:35:19;1.48;;;0.30;;
72369;SDS011;60343;-32.030;115.880;2023-06-10T06:38:01;3.05;;;0.30;;
72369;SDS011;60343;-32.030;115.880;2023-06-10T06:40:38;2.13;;;0.40;;
72369;SDS011;60343;-32.030;115.880;2023-06-10T06:43:14;3.67;;;0.43;;
72369;SDS011;60343;-32.030;115.880;2023-06-10T06:45:50;2.55;;;0.25;;
72369;SDS011;60343;-32.030;115.880;2023-06-10T06:48:27;1.65;;;0.13;;
72369;SDS011;60343;-32.030;115.880;2023-06-10T06:51:03;1.45;;;0.20;;
72369;SDS011;60343;-32.030;115.880;2023-06-10T06:53:46;0.93;;;0.17;;
72369;SDS011;60343;-32.030;115.880;2023-06-10T06:56:25;1.80;;;0.17;;
72369;SDS011;60343;-32.030;115.880;2023-06-10T06:59:01;3.05;;;0.30;;
72369;SDS011;60343;-32.030;115.880;2023-06-10T07:01:40;4.63;;;0.40;;
72369;SDS011;60343;-32.030;115.880;2023-06-10T07:04:16;2.80;;;0.40;;
72369;SDS011;60343;-32.030;115.880;2023-06-10T07:06:52;4.18;;;0.50;;
72369;SDS011;60343;-32.030;115.880;2023-06-10T07:09:35;4.22;;;0.47;;
72369;SDS011;60343;-32.030;115.880;2023-06-10T07:12:12;3.10;;;0.70;;
72369;SDS011;60343;-32.030;115.880;2023-06-10T07:14:50;6.15;;;0.50;;
72369;SDS011;60343;-32.030;115.880;2023-06-10T07:17:26;4.80;;;0.50;;
72369;SDS011;60343;-32.030;115.880;2023-06-10T07:20:03;4.03;;;0.57;;
72369;SDS011;60343;-32.030;115.880;2023-06-10T07:22:41;4.68;;;0.70;;
72369;SDS011;60343;-32.030;115.880;2023-06-10T07:25:23;1.92;;;0.38;;
72369;SDS011;60343;-32.030;115.880;2023-06-10T07:28:00;3.92;;;0.43;;
72369;SDS011;60343;-32.030;115.880;2023-06-10T07:30:36;5.85;;;0.60;;
72369;SDS011;60343;-32.030;115.880;2023-06-10T07:33:14;2.90;;;0.60;;
72369;SDS011;60343;-32.030;115.880;2023-06-10T07:35:50;2.75;;;0.50;;
72369;SDS011;60343;-32.030;115.880;2023-06-10T07:38:27;3.70;;;0.50;;
72369;SDS011;60343;-32.030;115.880;2023-06-10T07:41:09;6.00;;;0.50;;
72369;SDS011;60343;-32.030;115.880;2023-06-10T07:43:46;3.50;;;0.50;;
72369;SDS011;60343;-32.030;115.880;2023-06-10T07:46:22;3.88;;;0.38;;
72369;SDS011;60343;-32.030;115.880;2023-06-10T07:48:59;4.88;;;0.60;;
72369;SDS011;60343;-32.030;115.880;2023-06-10T07:51:35;2.65;;;0.40;;
72369;SDS011;60343;-32.030;115.880;2023-06-10T07:54:12;2.15;;;0.17;;
72369;SDS011;60343;-32.030;115.880;2023-06-10T07:56:54;1.58;;;0.20;;
72369;SDS011;60343;-32.030;115.880;2023-06-10T07:59:30;0.77;;;0.10;;
72369;SDS011;60343;-32.030;115.880;2023-06-10T08:02:07;1.08;;;0.10;;
72369;SDS011;60343;-32.030;115.880;2023-06-10T08:04:43;0.60;;;0.10;;
72369;SDS011;60343;-32.030;115.880;2023-06-10T08:07:19;1.65;;;0.20;;
72369;SDS011;60343;-32.030;115.880;2023-06-10T08:09:55;1.35;;;0.10;;
72369;SDS011;60343;-32.030;115.880;2023-06-10T08:12:38;1.38;;;0.00;;
72369;SDS011;60343;-32.030;115.880;2023-06-10T08:15:14;0.90;;;0.10;;
72369;SDS011;60343;-32.030;115.880;2023-06-10T08:17:50;1.55;;;0.10;;
72369;SDS011;60343;-32.030;115.880;2023-06-10T08:20:27;3.85;;;0.73;;
72369;SDS011;60343;-32.030;115.880;2023-06-10T08:23:03;0.95;;;0.10;;
72369;SDS011;60343;-32.030;115.880;2023-06-10T08:25:39;0.70;;;0.10;;
72369;SDS011;60343;-32.030;115.880;2023-06-10T08:28:22;0.77;;;0.05;;
72369;SDS011;60343;-32.030;115.880;2023-06-10T08:30:58;1.65;;;0.10;;
72369;SDS011;60343;-32.030;115.880;2023-06-10T08:33:35;0.95;;;0.10;;
72369;SDS011;60343;-32.030;115.880;2023-06-10T08:36:11;1.35;;;0.28;;
72369;SDS011;60343;-32.030;115.880;2023-06-10T08:38:47;2.70;;;0.28;;
72369;SDS011;60343;-32.030;115.880;2023-06-10T08:41:23;3.40;;;0.22;;
72369;SDS011;60343;-32.030;115.880;2023-06-10T08:46:47;1.70;;;0.08;;
72369;SDS011;60343;-32.030;115.880;2023-06-10T08:49:25;2.55;;;0.50;;
72369;SDS011;60343;-32.030;115.880;2023-06-10T08:52:05;2.67;;;0.20;;
72369;SDS011;60343;-32.030;115.880;2023-06-10T08:54:46;2.15;;;0.20;;
72369;SDS011;60343;-32.030;115.880;2023-06-10T08:57:27;0.88;;;0.13;;
72369;SDS011;60343;-32.030;115.880;2023-06-10T09:00:10;2.50;;;0.20;;
72369;SDS011;60343;-32.030;115.880;2023-06-10T09:02:47;3.05;;;0.20;;
72369;SDS011;60343;-32.030;115.880;2023-06-10T09:05:24;3.05;;;0.28;;
72369;SDS011;60343;-32.030;115.880;2023-06-10T09:08:06;3.33;;;0.32;;
72369;SDS011;60343;-32.030;115.880;2023-06-10T09:10:42;3.55;;;0.30;;
72369;SDS011;60343;-32.030;115.880;2023-06-10T09:13:19;3.90;;;0.40;;
72369;SDS011;60343;-32.030;115.880;2023-06-10T09:16:02;5.05;;;0.22;;
72369;SDS011;60343;-32.030;115.880;2023-06-10T09:18:39;3.65;;;0.20;;
72369;SDS011;60343;-32.030;115.880;2023-06-10T09:21:21;5.32;;;0.40;;
72369;SDS011;60343;-32.030;115.880;2023-06-10T09:24:01;2.17;;;0.15;;
72369;SDS011;60343;-32.030;115.880;2023-06-10T09:26:41;2.47;;;0.15;;
72369;SDS011;60343;-32.030;115.880;2023-06-10T09:29:21;2.75;;;0.17;;
72369;SDS011;60343;-32.030;115.880;2023-06-10T09:32:04;6.25;;;0.45;;
72369;SDS011;60343;-32.030;115.880;2023-06-10T09:34:41;4.63;;;0.30;;
72369;SDS011;60343;-32.030;115.880;2023-06-10T09:37:20;3.38;;;0.10;;
72369;SDS011;60343;-32.030;115.880;2023-06-10T09:40:03;2.97;;;0.30;;
72369;SDS011;60343;-32.030;115.880;2023-06-10T09:42:40;2.10;;;0.38;;
72369;SDS011;60343;-32.030;115.880;2023-06-10T09:45:20;5.40;;;0.57;;
72369;SDS011;60343;-32.030;115.880;2023-06-10T09:48:03;2.90;;;0.30;;
72369;SDS011;60343;-32.030;115.880;2023-06-10T09:50:42;5.93;;;0.65;;
72369;SDS011;60343;-32.030;115.880;2023-06-10T09:53:20;3.47;;;0.30;;
72369;SDS011;60343;-32.030;115.880;2023-06-10T09:55:57;5.55;;;0.70;;
72369;SDS011;60343;-32.030;115.880;2023-06-10T09:58:37;3.58;;;0.20;;
72369;SDS011;60343;-32.030;115.880;2023-06-10T10:01:14;3.80;;;0.20;;
72369;SDS011;60343;-32.030;115.880;2023-06-10T10:03:56;4.35;;;0.40;;
72369;SDS011;60343;-32.030;115.880;2023-06-10T10:06:33;4.63;;;0.32;;
72369;SDS011;60343;-32.030;115.880;2023-06-10T10:09:11;3.45;;;0.32;;
72369;SDS011;60343;-32.030;115.880;2023-06-10T10:11:48;3.17;;;0.50;;
72369;SDS011;60343;-32.030;115.880;2023-06-10T10:14:27;3.38;;;0.32;;
72369;SDS011;60343;-32.030;115.880;2023-06-10T10:17:07;1.52;;;0.30;;
72369;SDS011;60343;-32.030;115.880;2023-06-10T10:19:50;0.95;;;0.20;;
72369;SDS011;60343;-32.030;115.880;2023-06-10T10:22:29;2.30;;;0.13;;
72369;SDS011;60343;-32.030;115.880;2023-06-10T10:25:11;1.65;;;0.20;;
72369;SDS011;60343;-32.030;115.880;2023-06-10T10:27:51;2.38;;;0.20;;
72369;SDS011;60343;-32.030;115.880;2023-06-10T10:30:29;1.83;;;0.40;;
72369;SDS011;60343;-32.030;115.880;2023-06-10T10:33:13;3.60;;;0.30;;
72369;SDS011;60343;-32.030;115.880;2023-06-10T10:35:59;2.15;;;0.38;;
72369;SDS011;60343;-32.030;115.880;2023-06-10T10:38:37;2.60;;;0.30;;
72369;SDS011;60343;-32.030;115.880;2023-06-10T10:41:13;5.68;;;0.60;;
72369;SDS011;60343;-32.030;115.880;2023-06-10T10:43:51;2.72;;;0.30;;
72369;SDS011;60343;-32.030;115.880;2023-06-10T10:46:29;3.80;;;0.63;;
72369;SDS011;60343;-32.030;115.880;2023-06-10T10:49:16;1.92;;;0.25;;
72369;SDS011;60343;-32.030;115.880;2023-06-10T10:52:03;5.32;;;0.50;;
72369;SDS011;60343;-32.030;115.880;2023-06-10T10:54:46;3.70;;;0.50;;
72369;SDS011;60343;-32.030;115.880;2023-06-10T10:57:23;3.17;;;0.40;;
72369;SDS011;60343;-32.030;115.880;2023-06-10T11:00:03;7.32;;;0.60;;
72369;SDS011;60343;-32.030;115.880;2023-06-10T11:02:41;4.40;;;0.82;;
72369;SDS011;60343;-32.030;115.880;2023-06-10T11:05:30;3.92;;;0.60;;
72369;SDS011;60343;-32.030;115.880;2023-06-10T11:08:45;3.45;;;0.70;;
72369;SDS011;60343;-32.030;115.880;2023-06-10T11:11:25;5.18;;;0.50;;
72369;SDS011;60343;-32.030;115.880;2023-06-10T11:14:08;4.75;;;0.50;;
72369;SDS011;60343;-32.030;115.880;2023-06-10T11:16:44;4.72;;;0.40;;
72369;SDS011;60343;-32.030;115.880;2023-06-10T11:19:35;4.40;;;0.50;;
72369;SDS011;60343;-32.030;115.880;2023-06-10T11:24:57;7.40;;;0.60;;
72369;SDS011;60343;-32.030;115.880;2023-06-10T11:27:37;6.07;;;0.50;;
72369;SDS011;60343;-32.030;115.880;2023-06-10T11:30:19;6.15;;;0.50;;
72369;SDS011;60343;-32.030;115.880;2023-06-10T11:32:59;3.00;;;0.38;;
72369;SDS011;60343;-32.030;115.880;2023-06-10T11:35:36;6.05;;;0.60;;
72369;SDS011;60343;-32.030;115.880;2023-06-10T11:38:12;6.80;;;0.45;;
72369;SDS011;60343;-32.030;115.880;2023-06-10T11:40:55;5.63;;;0.50;;
72369;SDS011;60343;-32.030;115.880;2023-06-10T11:43:31;2.72;;;0.40;;
72369;SDS011;60343;-32.030;115.880;2023-06-10T11:46:08;3.78;;;0.40;;
72369;SDS011;60343;-32.030;115.880;2023-06-10T11:48:48;2.95;;;0.38;;
72369;SDS011;60343;-32.030;115.880;2023-06-10T11:51:26;3.63;;;0.30;;
72369;SDS011;60343;-32.030;115.880;2023-06-10T11:54:03;4.47;;;0.40;;
72369;SDS011;60343;-32.030;115.880;2023-06-10T11:56:46;5.07;;;0.60;;
72369;SDS011;60343;-32.030;115.880;2023-06-10T11:59:26;2.40;;;0.40;;
72369;SDS011;60343;-32.030;115.880;2023-06-10T12:02:03;5.65;;;0.40;;
72369;SDS011;60343;-32.030;115.880;2023-06-10T12:04:39;3.85;;;0.40;;
72369;SDS011;60343;-32.030;115.880;2023-06-10T12:07:19;3.80;;;0.40;;
72369;SDS011;60343;-32.030;115.880;2023-06-10T12:09:59;4.03;;;0.40;;
72369;SDS011;60343;-32.030;115.880;2023-06-10T12:12:41;2.15;;;0.25;;
72369;SDS011;60343;-32.030;115.880;2023-06-10T12:15:24;3.15;;;0.50;;
72369;SDS011;60343;-32.030;115.880;2023-06-10T12:18:00;5.15;;;0.43;;
72369;SDS011;60343;-32.030;115.880;2023-06-10T12:20:37;1.95;;;0.35;;
72369;SDS011;60343;-32.030;115.880;2023-06-10T12:23:14;5.18;;;0.50;;
72369;SDS011;60343;-32.030;115.880;2023-06-10T12:25:51;2.67;;;0.30;;
72369;SDS011;60343;-32.030;115.880;2023-06-10T12:28:33;6.63;;;0.73;;
72369;SDS011;60343;-32.030;115.880;2023-06-10T12:31:10;3.75;;;0.38;;
72369;SDS011;60343;-32.030;115.880;2023-06-10T12:33:46;6.68;;;0.68;;
72369;SDS011;60343;-32.030;115.880;2023-06-10T12:36:22;2.38;;;0.57;;
72369;SDS011;60343;-32.030;115.880;2023-06-10T12:39:03;4.32;;;0.43;;
72369;SDS011;60343;-32.030;115.880;2023-06-10T12:44:23;3.75;;;0.57;;
72369;SDS011;60343;-32.030;115.880;2023-06-10T12:49:45;4.65;;;0.40;;
72369;SDS011;60343;-32.030;115.880;2023-06-10T12:52:22;3.70;;;0.32;;
72369;SDS011;60343;-32.030;115.880;2023-06-10T12:54:59;5.82;;;0.40;;
72369;SDS011;60343;-32.030;115.880;2023-06-10T12:57:35;4.55;;;0.47;;
72369;SDS011;60343;-32.030;115.880;2023-06-10T13:00:18;1.80;;;0.38;;
72369;SDS011;60343;-32.030;115.880;2023-06-10T13:02:57;1.67;;;0.43;;
72369;SDS011;60343;-32.030;115.880;2023-06-10T13:05:34;3.33;;;0.30;;
72369;SDS011;60343;-32.030;115.880;2023-06-10T13:08:11;3.97;;;0.40;;
72369;SDS011;60343;-32.030;115.880;2023-06-10T13:10:47;5.07;;;0.73;;
72369;SDS011;60343;-32.030;115.880;2023-06-10T13:13:24;7.63;;;0.63;;
72369;SDS011;60343;-32.030;115.880;2023-06-10T13:16:06;3.83;;;0.68;;
72369;SDS011;60343;-32.030;115.880;2023-06-10T13:18:42;6.75;;;0.65;;
72369;SDS011;60343;-32.030;115.880;2023-06-10T13:21:19;4.60;;;0.60;;
72369;SDS011;60343;-32.030;115.880;2023-06-10T13:23:55;3.80;;;0.43;;
72369;SDS011;60343;-32.030;115.880;2023-06-10T13:26:31;5.95;;;0.82;;
72369;SDS011;60343;-32.030;115.880;2023-06-10T13:29:08;3.85;;;0.38;;
72369;SDS011;60343;-32.030;115.880;2023-06-10T13:31:54;7.93;;;1.17;;
72369;SDS011;60343;-32.030;115.880;2023-06-10T13:34:30;4.95;;;0.50;;
72369;SDS011;60343;-32.030;115.880;2023-06-10T13:37:06;5.00;;;0.70;;
72369;SDS011;60343;-32.030;115.880;2023-06-10T13:39:43;4.63;;;0.75;;
72369;SDS011;60343;-32.030;115.880;2023-06-10T13:42:20;6.82;;;0.50;;
72369;SDS011;60343;-32.030;115.880;2023-06-10T13:44:56;4.22;;;0.75;;
72369;SDS011;60343;-32.030;115.880;2023-06-10T13:47:39;7.57;;;0.68;;
72369;SDS011;60343;-32.030;115.880;2023-06-10T13:50:15;5.90;;;0.50;;
72369;SDS011;60343;-32.030;115.880;2023-06-10T13:52:52;4.47;;;0.65;;
72369;SDS011;60343;-32.030;115.880;2023-06-10T13:55:30;5.03;;;0.77;;
72369;SDS011;60343;-32.030;115.880;2023-06-10T13:58:06;6.70;;;0.68;;
72369;SDS011;60343;-32.030;115.880;2023-06-10T14:00:43;5.75;;;0.70;;
72369;SDS011;60343;-32.030;115.880;2023-06-10T14:03:25;6.05;;;0.70;;
72369;SDS011;60343;-32.030;115.880;2023-06-10T14:06:02;5.55;;;1.02;;
72369;SDS011;60343;-32.030;115.880;2023-06-10T14:08:39;3.92;;;0.77;;
72369;SDS011;60343;-32.030;115.880;2023-06-10T14:11:15;4.15;;;0.60;;
72369;SDS011;60343;-32.030;115.880;2023-06-10T14:13:52;2.78;;;0.45;;
72369;SDS011;60343;-32.030;115.880;2023-06-10T14:16:28;5.70;;;0.77;;
72369;SDS011;60343;-32.030;115.880;2023-06-10T14:19:11;5.43;;;0.55;;
72369;SDS011;60343;-32.030;115.880;2023-06-10T14:21:47;2.65;;;0.43;;
72369;SDS011;60343;-32.030;115.880;2023-06-10T14:24:25;4.03;;;0.73;;
72369;SDS011;60343;-32.030;115.880;2023-06-10T14:27:01;3.85;;;0.40;;
72369;SDS011;60343;-32.030;115.880;2023-06-10T14:29:38;9.40;;;0.70;;
72369;SDS011;60343;-32.030;115.880;2023-06-10T14:32:14;9.13;;;0.60;;
72369;SDS011;60343;-32.030;115.880;2023-06-10T14:34:56;5.15;;;0.45;;
72369;SDS011;60343;-32.030;115.880;2023-06-10T14:37:33;9.70;;;0.90;;
72369;SDS011;60343;-32.030;115.880;2023-06-10T14:40:09;7.32;;;0.50;;
72369;SDS011;60343;-32.030;115.880;2023-06-10T14:42:47;8.93;;;0.85;;
72369;SDS011;60343;-32.030;115.880;2023-06-10T14:45:24;5.22;;;0.40;;
72369;SDS011;60343;-32.030;115.880;2023-06-10T14:48:00;7.68;;;0.63;;
72369;SDS011;60343;-32.030;115.880;2023-06-10T14:50:43;7.45;;;0.63;;
72369;SDS011;60343;-32.030;115.880;2023-06-10T14:53:21;4.05;;;0.60;;
72369;SDS011;60343;-32.030;115.880;2023-06-10T14:55:58;8.93;;;0.63;;
72369;SDS011;60343;-32.030;115.880;2023-06-10T14:58:34;7.43;;;0.73;;
72369;SDS011;60343;-32.030;115.880;2023-06-10T15:01:10;5.82;;;0.40;;
72369;SDS011;60343;-32.030;115.880;2023-06-10T15:03:46;5.38;;;0.60;;
72369;SDS011;60343;-32.030;115.880;2023-06-10T15:06:29;1.33;;;0.40;;
72369;SDS011;60343;-32.030;115.880;2023-06-10T15:09:05;2.40;;;0.25;;
72369;SDS011;60343;-32.030;115.880;2023-06-10T15:11:42;5.85;;;0.47;;
72369;SDS011;60343;-32.030;115.880;2023-06-10T15:14:18;6.40;;;0.55;;
72369;SDS011;60343;-32.030;115.880;2023-06-10T15:16:54;3.10;;;0.40;;
72369;SDS011;60343;-32.030;115.880;2023-06-10T15:19:31;4.60;;;0.40;;
72369;SDS011;60343;-32.030;115.880;2023-06-10T15:22:14;5.78;;;0.50;;
72369;SDS011;60343;-32.030;115.880;2023-06-10T15:24:50;6.30;;;0.63;;
72369;SDS011;60343;-32.030;115.880;2023-06-10T15:27:26;8.35;;;0.77;;